sensor_id;sensor_type;location;lat;lon;timestamp;pressure;altitude;pressure_sealevel;temperature;humidity
60087;BME280;45960;53.630;55.972;2023-08-08T00:00:51;99311.50;;;22.03;61.92
60087;BME280;45960;53.630;55.972;2023-08-08T00:01:52;99299.34;;;21.99;61.95
60087;BME280;45960;53.630;55.972;2023-08-08T00:02:53;99307.09;;;22.02;61.97
60087;BME280;45960;53.630;55.972;2023-08-08T00:03:54;99313.56;;;22.01;62.13
60087;BME280;45960;53.630;55.972;2023-08-08T00:04:55;99321.09;;;21.99;62.18
60087;BME280;45960;53.630;55.972;2023-08-08T00:05:56;99312.28;;;21.97;62.27
60087;BME280;45960;53.630;55.972;2023-08-08T00:06:57;99308.09;;;21.95;62.24
60087;BME280;45960;53.630;55.972;2023-08-08T00:07:58;99313.53;;;21.95;62.09
60087;BME280;45960;53.630;55.972;2023-08-08T00:08:59;99313.09;;;21.91;62.38
60087;BME280;45960;53.630;55.972;2023-08-08T00:10:00;99307.00;;;21.89;62.22
60087;BME280;45960;53.630;55.972;2023-08-08T00:11:01;99313.47;;;21.88;62.21
60087;BME280;45960;53.630;55.972;2023-08-08T00:12:02;99314.50;;;21.87;62.56
60087;BME280;45960;53.630;55.972;2023-08-08T00:13:04;99313.00;;;21.84;62.25
60087;BME280;45960;53.630;55.972;2023-08-08T00:14:05;99317.63;;;21.84;62.58
60087;BME280;45960;53.630;55.972;2023-08-08T00:15:07;99311.56;;;21.82;62.31
60087;BME280;45960;53.630;55.972;2023-08-08T00:16:08;99323.44;;;21.81;62.59
60087;BME280;45960;53.630;55.972;2023-08-08T00:17:09;99317.16;;;21.80;62.57
60087;BME280;45960;53.630;55.972;2023-08-08T00:18:10;99318.41;;;21.78;62.64
60087;BME280;45960;53.630;55.972;2023-08-08T00:19:11;99322.16;;;21.77;62.69
60087;BME280;45960;53.630;55.972;2023-08-08T00:20:12;99314.16;;;21.68;62.48
60087;BME280;45960;53.630;55.972;2023-08-08T00:21:13;99308.31;;;21.72;62.58
60087;BME280;45960;53.630;55.972;2023-08-08T00:22:14;99317.13;;;21.74;62.63
60087;BME280;45960;53.630;55.972;2023-08-08T00:23:15;99323.59;;;21.73;62.82
60087;BME280;45960;53.630;55.972;2023-08-08T00:24:16;99325.84;;;21.69;62.78
60087;BME280;45960;53.630;55.972;2023-08-08T00:25:17;99308.19;;;21.58;62.57
60087;BME280;45960;53.630;55.972;2023-08-08T00:26:18;99326.69;;;21.70;62.58
60087;BME280;45960;53.630;55.972;2023-08-08T00:27:20;99325.84;;;21.69;62.71
60087;BME280;45960;53.630;55.972;2023-08-08T00:28:21;99325.03;;;21.68;62.62
60087;BME280;45960;53.630;55.972;2023-08-08T00:29:22;99328.75;;;21.67;62.50
60087;BME280;45960;53.630;55.972;2023-08-08T00:30:23;99327.09;;;21.66;62.59
60087;BME280;45960;53.630;55.972;2023-08-08T00:31:24;99333.56;;;21.65;62.96
60087;BME280;45960;53.630;55.972;2023-08-08T00:32:26;99329.16;;;21.64;62.69
60087;BME280;45960;53.630;55.972;2023-08-08T00:33:27;99335.47;;;21.65;62.76
60087;BME280;45960;53.630;55.972;2023-08-08T00:34:28;99333.75;;;21.64;62.82
60087;BME280;45960;53.630;55.972;2023-08-08T00:35:29;99332.25;;;21.61;62.81
60087;BME280;45960;53.630;55.972;2023-08-08T00:36:30;99328.72;;;21.61;62.76
60087;BME280;45960;53.630;55.972;2023-08-08T00:37:31;99338.75;;;21.60;62.61
60087;BME280;45960;53.630;55.972;2023-08-08T00:38:34;99326.19;;;21.59;62.72
60087;BME280;45960;53.630;55.972;2023-08-08T00:39:35;99323.47;;;21.59;62.95
60087;BME280;45960;53.630;55.972;2023-08-08T00:40:36;99322.44;;;21.60;62.79
60087;BME280;45960;53.630;55.972;2023-08-08T00:41:37;99320.75;;;21.59;62.69
60087;BME280;45960;53.630;55.972;2023-08-08T00:42:37;99319.91;;;21.59;62.78
60087;BME280;45960;53.630;55.972;2023-08-08T00:43:38;99324.50;;;21.58;62.76
60087;BME280;45960;53.630;55.972;2023-08-08T00:44:40;99324.50;;;21.58;62.62
60087;BME280;45960;53.630;55.972;2023-08-08T00:45:42;99318.22;;;21.58;62.91
60087;BME280;45960;53.630;55.972;2023-08-08T00:46:44;99322.81;;;21.57;62.74
60087;BME280;45960;53.630;55.972;2023-08-08T00:47:45;99308.53;;;21.49;62.91
60087;BME280;45960;53.630;55.972;2023-08-08T00:48:47;99315.69;;;21.56;62.82
60087;BME280;45960;53.630;55.972;2023-08-08T00:49:48;99319.47;;;21.55;62.93
60087;BME280;45960;53.630;55.972;2023-08-08T00:50:50;99318.41;;;21.56;62.89
60087;BME280;45960;53.630;55.972;2023-08-08T00:51:51;99316.75;;;21.55;62.98
60087;BME280;45960;53.630;55.972;2023-08-08T00:52:52;99309.63;;;21.54;62.72
60087;BME280;45960;53.630;55.972;2023-08-08T00:53:54;99316.09;;;21.53;62.78
60087;BME280;45960;53.630;55.972;2023-08-08T00:54:56;99320.28;;;21.56;62.83
60087;BME280;45960;53.630;55.972;2023-08-08T00:55:58;99309.38;;;21.49;62.75
60087;BME280;45960;53.630;55.972;2023-08-08T00:57:00;99319.28;;;21.57;62.76
60087;BME280;45960;53.630;55.972;2023-08-08T00:58:01;99321.13;;;21.56;62.90
60087;BME280;45960;53.630;55.972;2023-08-08T00:59:03;99328.25;;;21.57;62.61
60087;BME280;45960;53.630;55.972;2023-08-08T01:00:08;99323.66;;;21.58;62.71
60087;BME280;45960;53.630;55.972;2023-08-08T01:01:11;99313.63;;;21.58;62.70
60087;BME280;45960;53.630;55.972;2023-08-08T01:02:12;99319.06;;;21.58;62.70
60087;BME280;45960;53.630;55.972;2023-08-08T01:03:13;99324.94;;;21.62;62.68
60087;BME280;45960;53.630;55.972;2023-08-08T01:04:15;99328.13;;;21.65;62.45
60087;BME280;45960;53.630;55.972;2023-08-08T01:05:17;99321.66;;;21.66;62.67
60087;BME280;45960;53.630;55.972;2023-08-08T01:06:32;99326.69;;;21.70;62.37
60087;BME280;45960;53.630;55.972;2023-08-08T01:07:52;99321.25;;;21.70;62.36
60087;BME280;45960;53.630;55.972;2023-08-08T01:09:10;99322.97;;;21.71;62.17
60087;BME280;45960;53.630;55.972;2023-08-08T01:10:17;99326.31;;;21.73;62.29
60087;BME280;45960;53.630;55.972;2023-08-08T01:11:21;99322.56;;;21.74;62.29
60087;BME280;45960;53.630;55.972;2023-08-08T01:12:24;99325.91;;;21.76;62.10
60087;BME280;45960;53.630;55.972;2023-08-08T01:13:30;99321.53;;;21.75;61.97
60087;BME280;45960;53.630;55.972;2023-08-08T01:14:34;99326.94;;;21.75;61.96
60087;BME280;45960;53.630;55.972;2023-08-08T01:15:37;99322.56;;;21.74;61.73
60087;BME280;45960;53.630;55.972;2023-08-08T01:16:39;99329.84;;;21.73;62.03
60087;BME280;45960;53.630;55.972;2023-08-08T01:17:41;99321.25;;;21.70;62.06
60087;BME280;45960;53.630;55.972;2023-08-08T01:18:44;99324.19;;;21.68;61.75
60087;BME280;45960;53.630;55.972;2023-08-08T01:19:46;99317.03;;;21.67;61.98
60087;BME280;45960;53.630;55.972;2023-08-08T01:20:48;99320.81;;;21.66;61.99
60087;BME280;45960;53.630;55.972;2023-08-08T01:21:53;99323.72;;;21.64;61.98
60087;BME280;45960;53.630;55.972;2023-08-08T01:24:19;99315.56;;;21.64;62.06
60087;BME280;45960;53.630;55.972;2023-08-08T01:25:21;99323.72;;;21.64;62.13
60087;BME280;45960;53.630;55.972;2023-08-08T01:26:22;99319.97;;;21.65;62.12
60087;BME280;45960;53.630;55.972;2023-08-08T01:27:24;99317.03;;;21.67;61.87
60087;BME280;45960;53.630;55.972;2023-08-08T01:28:25;99320.88;;;21.73;61.72
60087;BME280;45960;53.630;55.972;2023-08-08T01:29:27;99314.00;;;21.77;61.68
60087;BME280;45960;53.630;55.972;2023-08-08T01:30:28;99325.16;;;21.82;61.64
60087;BME280;45960;53.630;55.972;2023-08-08T01:31:29;99317.22;;;21.87;61.29
60087;BME280;45960;53.630;55.972;2023-08-08T01:32:30;99318.53;;;21.91;61.18
60087;BME280;45960;53.630;55.972;2023-08-08T01:33:31;99319.41;;;21.98;61.08
60087;BME280;45960;53.630;55.972;2023-08-08T01:34:32;99321.53;;;22.03;61.13
60087;BME280;45960;53.630;55.972;2023-08-08T01:35:37;99334.56;;;22.07;60.84
60087;BME280;45960;53.630;55.972;2023-08-08T01:36:50;99331.44;;;22.10;60.80
60087;BME280;45960;53.630;55.972;2023-08-08T01:38:00;99322.88;;;22.13;61.16
60087;BME280;45960;53.630;55.972;2023-08-08T01:39:09;99325.38;;;22.15;60.85
60087;BME280;45960;53.630;55.972;2023-08-08T01:40:16;99319.59;;;22.18;60.94
60087;BME280;45960;53.630;55.972;2023-08-08T01:41:18;99322.94;;;22.20;60.69
60087;BME280;45960;53.630;55.972;2023-08-08T01:42:21;99324.44;;;22.23;60.75
60087;BME280;45960;53.630;55.972;2023-08-08T01:43:24;99325.06;;;22.25;60.55
60087;BME280;45960;53.630;55.972;2023-08-08T01:44:27;99325.72;;;22.27;60.44
60087;BME280;45960;53.630;55.972;2023-08-08T01:45:29;99329.72;;;22.31;60.46
60087;BME280;45960;53.630;55.972;2023-08-08T01:46:30;99323.03;;;22.33;60.48
60087;BME280;45960;53.630;55.972;2023-08-08T01:47:31;99322.84;;;22.35;60.37
60087;BME280;45960;53.630;55.972;2023-08-08T01:48:33;99313.41;;;22.31;60.53
60087;BME280;45960;53.630;55.972;2023-08-08T01:49:34;99305.22;;;22.31;60.38
60087;BME280;45960;53.630;55.972;2023-08-08T01:50:36;99306.28;;;22.30;60.34
60087;BME280;45960;53.630;55.972;2023-08-08T01:51:37;99322.25;;;22.40;60.46
60087;BME280;45960;53.630;55.972;2023-08-08T01:52:38;99322.25;;;22.40;60.33
60087;BME280;45960;53.630;55.972;2023-08-08T01:53:39;99319.72;;;22.38;60.53
60087;BME280;45960;53.630;55.972;2023-08-08T01:54:40;99317.00;;;22.38;60.36
60087;BME280;45960;53.630;55.972;2023-08-08T01:55:43;99311.56;;;22.38;60.46
60087;BME280;45960;53.630;55.972;2023-08-08T01:56:44;99288.22;;;22.22;60.23
60087;BME280;45960;53.630;55.972;2023-08-08T01:57:45;99320.13;;;22.35;60.30
60087;BME280;45960;53.630;55.972;2023-08-08T01:58:46;99301.47;;;22.32;60.44
60087;BME280;45960;53.630;55.972;2023-08-08T01:59:47;99311.31;;;22.33;60.49
60087;BME280;45960;53.630;55.972;2023-08-08T02:00:48;99311.97;;;22.35;60.65
60087;BME280;45960;53.630;55.972;2023-08-08T02:01:50;99307.56;;;22.34;60.75
60087;BME280;45960;53.630;55.972;2023-08-08T02:02:51;99312.81;;;22.36;60.49
60087;BME280;45960;53.630;55.972;2023-08-08T02:03:52;99314.69;;;22.35;60.60
60087;BME280;45960;53.630;55.972;2023-08-08T02:04:53;99315.13;;;22.39;60.69
60087;BME280;45960;53.630;55.972;2023-08-08T02:05:54;99314.28;;;22.38;60.73
60087;BME280;45960;53.630;55.972;2023-08-08T02:06:56;99308.84;;;22.38;60.65
60087;BME280;45960;53.630;55.972;2023-08-08T02:07:56;99314.91;;;22.40;60.59
60087;BME280;45960;53.630;55.972;2023-08-08T02:08:58;99314.72;;;22.42;60.52
60087;BME280;45960;53.630;55.972;2023-08-08T02:09:59;99315.16;;;22.45;60.20
60087;BME280;45960;53.630;55.972;2023-08-08T02:11:00;99324.81;;;22.48;60.09
60087;BME280;45960;53.630;55.972;2023-08-08T02:12:01;99323.56;;;22.50;60.20
60087;BME280;45960;53.630;55.972;2023-08-08T02:13:02;99323.38;;;22.52;59.98
60087;BME280;45960;53.630;55.972;2023-08-08T02:14:03;99313.94;;;22.54;60.26
60087;BME280;45960;53.630;55.972;2023-08-08T02:15:05;99315.41;;;22.57;60.42
60087;BME280;45960;53.630;55.972;2023-08-08T02:16:06;99316.06;;;22.59;60.17
60087;BME280;45960;53.630;55.972;2023-08-08T02:17:07;99319.22;;;22.63;60.31
60087;BME280;45960;53.630;55.972;2023-08-08T02:18:08;99315.47;;;22.64;60.16
60087;BME280;45960;53.630;55.972;2023-08-08T02:19:31;99318.81;;;22.66;60.22
60087;BME280;45960;53.630;55.972;2023-08-08T02:20:32;99317.38;;;22.70;60.27
60087;BME280;45960;53.630;55.972;2023-08-08T02:21:33;99321.38;;;22.74;59.82
60087;BME280;45960;53.630;55.972;2023-08-08T02:22:34;99318.88;;;22.79;59.80
60087;BME280;45960;53.630;55.972;2023-08-08T02:23:37;99315.13;;;22.80;59.63
60087;BME280;45960;53.630;55.972;2023-08-08T02:24:38;99314.97;;;22.88;59.27
60087;BME280;45960;53.630;55.972;2023-08-08T02:25:39;99325.44;;;22.91;59.19
60087;BME280;45960;53.630;55.972;2023-08-08T02:26:40;99317.50;;;22.96;59.17
60087;BME280;45960;53.630;55.972;2023-08-08T02:27:43;99313.34;;;23.00;59.15
60087;BME280;45960;53.630;55.972;2023-08-08T02:28:44;99316.31;;;23.06;59.33
60087;BME280;45960;53.630;55.972;2023-08-08T02:29:45;99316.91;;;23.08;59.31
60087;BME280;45960;53.630;55.972;2023-08-08T02:30:46;99303.94;;;23.10;58.98
60087;BME280;45960;53.630;55.972;2023-08-08T02:31:47;99308.38;;;23.11;58.78
60087;BME280;45960;53.630;55.972;2023-08-08T02:32:48;99302.06;;;23.10;59.15
60087;BME280;45960;53.630;55.972;2023-08-08T02:33:50;99291.16;;;23.04;59.24
60087;BME280;45960;53.630;55.972;2023-08-08T02:34:51;99308.97;;;23.13;58.94
60087;BME280;45960;53.630;55.972;2023-08-08T02:35:52;99300.38;;;23.09;58.97
60087;BME280;45960;53.630;55.972;2023-08-08T02:36:53;99299.38;;;23.17;58.86
60087;BME280;45960;53.630;55.972;2023-08-08T02:37:54;99296.66;;;23.17;58.35
60087;BME280;45960;53.630;55.972;2023-08-08T02:38:55;99293.09;;;23.23;58.69
60087;BME280;45960;53.630;55.972;2023-08-08T02:39:56;99294.97;;;23.29;58.34
60087;BME280;45960;53.630;55.972;2023-08-08T02:40:57;99291.66;;;23.34;58.22
60087;BME280;45960;53.630;55.972;2023-08-08T02:41:58;99291.66;;;23.40;57.95
60087;BME280;45960;53.630;55.972;2023-08-08T02:43:00;99286.84;;;23.42;57.60
60087;BME280;45960;53.630;55.972;2023-08-08T02:44:01;99291.22;;;23.43;57.71
60087;BME280;45960;53.630;55.972;2023-08-08T02:45:03;99283.28;;;23.49;57.77
60087;BME280;45960;53.630;55.972;2023-08-08T02:46:04;99281.19;;;23.51;57.70
60087;BME280;45960;53.630;55.972;2023-08-08T02:47:06;99289.13;;;23.52;57.46
60087;BME280;45960;53.630;55.972;2023-08-08T02:48:07;99298.78;;;23.55;57.38
60087;BME280;45960;53.630;55.972;2023-08-08T02:49:08;99298.78;;;23.55;57.71
60087;BME280;45960;53.630;55.972;2023-08-08T02:50:09;99297.13;;;23.54;57.43
60087;BME280;45960;53.630;55.972;2023-08-08T02:51:10;99301.53;;;23.55;57.67
60087;BME280;45960;53.630;55.972;2023-08-08T02:52:11;99296.06;;;23.55;57.82
60087;BME280;45960;53.630;55.972;2023-08-08T02:53:12;99298.78;;;23.55;57.99
60087;BME280;45960;53.630;55.972;2023-08-08T02:54:18;99297.13;;;23.54;57.80
60087;BME280;45960;53.630;55.972;2023-08-08T02:55:19;99297.13;;;23.54;57.92
60087;BME280;45960;53.630;55.972;2023-08-08T02:56:23;99294.41;;;23.54;57.82
60087;BME280;45960;53.630;55.972;2023-08-08T02:57:26;99291.66;;;23.54;58.03
60087;BME280;45960;53.630;55.972;2023-08-08T02:58:29;99288.31;;;23.52;57.82
60087;BME280;45960;53.630;55.972;2023-08-08T02:59:32;99288.31;;;23.52;58.08
60087;BME280;45960;53.630;55.972;2023-08-08T03:00:36;99287.47;;;23.51;58.36
60087;BME280;45960;53.630;55.972;2023-08-08T03:01:37;99284.56;;;23.53;57.99
60087;BME280;45960;53.630;55.972;2023-08-08T03:02:38;99286.22;;;23.54;58.21
60087;BME280;45960;53.630;55.972;2023-08-08T03:03:40;99282.44;;;23.55;58.15
60087;BME280;45960;53.630;55.972;2023-08-08T03:04:42;99288.34;;;23.58;58.35
60087;BME280;45960;53.630;55.972;2023-08-08T03:05:44;99286.44;;;23.59;58.25
60087;BME280;45960;53.630;55.972;2023-08-08T03:06:46;99282.88;;;23.58;58.19
60087;BME280;45960;53.630;55.972;2023-08-08T03:07:48;99285.38;;;23.60;57.99
60087;BME280;45960;53.630;55.972;2023-08-08T03:08:49;99286.66;;;23.64;58.32
60087;BME280;45960;53.630;55.972;2023-08-08T03:09:50;99292.13;;;23.64;58.14
60087;BME280;45960;53.630;55.972;2023-08-08T03:10:51;99297.97;;;23.67;58.30
60087;BME280;45960;53.630;55.972;2023-08-08T03:11:52;99296.72;;;23.70;58.34
60087;BME280;45960;53.630;55.972;2023-08-08T03:12:53;99295.50;;;23.73;58.27
60087;BME280;45960;53.630;55.972;2023-08-08T03:13:55;99294.25;;;23.75;58.26
60087;BME280;45960;53.630;55.972;2023-08-08T03:14:56;99292.97;;;23.78;58.32
60087;BME280;45960;53.630;55.972;2023-08-08T03:15:57;99294.22;;;23.82;58.55
60087;BME280;45960;53.630;55.972;2023-08-08T03:16:59;99294.66;;;23.85;58.61
60087;BME280;45960;53.630;55.972;2023-08-08T03:18:00;99292.56;;;23.87;58.37
60087;BME280;45960;53.630;55.972;2023-08-08T03:19:01;99287.72;;;23.89;57.96
60087;BME280;45960;53.630;55.972;2023-08-08T03:20:03;99295.91;;;23.96;58.14
60087;BME280;45960;53.630;55.972;2023-08-08T03:21:07;99290.84;;;24.00;58.13
60087;BME280;45960;53.630;55.972;2023-08-08T03:22:09;99295.88;;;24.03;58.06
60087;BME280;45960;53.630;55.972;2023-08-08T03:23:12;99291.69;;;24.07;58.12
60087;BME280;45960;53.630;55.972;2023-08-08T03:24:16;99285.81;;;24.10;57.88
60087;BME280;45960;53.630;55.972;2023-08-08T03:25:17;99295.88;;;24.16;57.98
60087;BME280;45960;53.630;55.972;2023-08-08T03:26:20;99290.00;;;24.19;58.03
60087;BME280;45960;53.630;55.972;2023-08-08T03:27:21;99289.56;;;24.22;57.83
60087;BME280;45960;53.630;55.972;2023-08-08T03:28:25;99288.53;;;24.23;57.85
60087;BME280;45960;53.630;55.972;2023-08-08T03:29:28;99291.66;;;24.27;57.87
60087;BME280;45960;53.630;55.972;2023-08-08T03:30:31;99291.22;;;24.30;57.64
60087;BME280;45960;53.630;55.972;2023-08-08T03:31:33;99294.16;;;24.35;57.36
60087;BME280;45960;53.630;55.972;2023-08-08T03:32:37;99288.28;;;24.38;57.41
60087;BME280;45960;53.630;55.972;2023-08-08T03:33:38;99298.56;;;24.43;57.44
60087;BME280;45960;53.630;55.972;2023-08-08T03:34:41;99294.81;;;24.44;57.30
60087;BME280;45960;53.630;55.972;2023-08-08T03:35:42;99296.66;;;24.50;57.14
60087;BME280;45960;53.630;55.972;2023-08-08T03:36:45;99273.56;;;24.39;57.42
60087;BME280;45960;53.630;55.972;2023-08-08T03:37:46;99304.19;;;24.61;57.42
60087;BME280;45960;53.630;55.972;2023-08-08T03:38:47;99306.50;;;24.64;57.48
60087;BME280;45960;53.630;55.972;2023-08-08T03:39:48;99301.22;;;24.69;57.43
60087;BME280;45960;53.630;55.972;2023-08-08T03:40:50;99292.41;;;24.74;57.27
60087;BME280;45960;53.630;55.972;2023-08-08T03:41:51;99286.50;;;24.77;57.00
60087;BME280;45960;53.630;55.972;2023-08-08T03:42:53;99283.13;;;24.82;56.57
60087;BME280;45960;53.630;55.972;2023-08-08T03:43:54;99276.38;;;24.84;56.56
60087;BME280;45960;53.630;55.972;2023-08-08T03:44:57;99288.94;;;24.92;56.47
60087;BME280;45960;53.630;55.972;2023-08-08T03:45:58;99284.75;;;24.96;55.99
60087;BME280;45960;53.630;55.972;2023-08-08T03:47:00;99285.97;;;25.00;55.99
60087;BME280;45960;53.630;55.972;2023-08-08T03:48:01;99294.34;;;25.05;56.19
60087;BME280;45960;53.630;55.972;2023-08-08T03:49:03;99286.34;;;25.10;56.22
60087;BME280;45960;53.630;55.972;2023-08-08T03:50:05;99289.72;;;25.12;56.25
60087;BME280;45960;53.630;55.972;2023-08-08T03:51:06;99294.31;;;25.18;56.55
60087;BME280;45960;53.630;55.972;2023-08-08T03:52:07;99291.16;;;25.21;56.05
60087;BME280;45960;53.630;55.972;2023-08-08T03:53:08;99287.97;;;25.25;55.75
60087;BME280;45960;53.630;55.972;2023-08-08T03:54:10;99287.97;;;25.25;55.79
60087;BME280;45960;53.630;55.972;2023-08-08T03:55:11;99289.19;;;25.29;55.69
60087;BME280;45960;53.630;55.972;2023-08-08T03:56:13;99293.81;;;25.35;55.50
60087;BME280;45960;53.630;55.972;2023-08-08T03:57:14;99271.94;;;25.35;55.63
60087;BME280;45960;53.630;55.972;2023-08-08T03:58:15;99287.44;;;25.41;55.25
60087;BME280;45960;53.630;55.972;2023-08-08T03:59:16;99288.69;;;25.45;55.30
60087;BME280;45960;53.630;55.972;2023-08-08T04:00:19;99295.41;;;25.49;55.54
60087;BME280;45960;53.630;55.972;2023-08-08T04:01:20;99291.13;;;25.53;55.18
60087;BME280;45960;53.630;55.972;2023-08-08T04:02:21;99292.38;;;25.57;55.23
60087;BME280;45960;53.630;55.972;2023-08-08T04:03:22;99292.53;;;25.62;55.34
60087;BME280;45960;53.630;55.972;2023-08-08T04:04:23;99287.25;;;25.67;55.40
60087;BME280;45960;53.630;55.972;2023-08-08T04:05:24;99283.84;;;25.72;55.08
60087;BME280;45960;53.630;55.972;2023-08-08T04:06:26;99280.47;;;25.77;54.42
60087;BME280;45960;53.630;55.972;2023-08-08T04:07:27;99282.50;;;25.81;54.48
60087;BME280;45960;53.630;55.972;2023-08-08T04:08:28;99286.50;;;25.85;54.47
60087;BME280;45960;53.630;55.972;2023-08-08T04:09:29;99282.88;;;25.92;54.70
60087;BME280;45960;53.630;55.972;2023-08-08T04:10:30;99284.91;;;25.96;54.09
60087;BME280;45960;53.630;55.972;2023-08-08T04:11:31;99280.69;;;26.00;53.97
60087;BME280;45960;53.630;55.972;2023-08-08T04:12:32;99286.34;;;26.05;53.54
60087;BME280;45960;53.630;55.972;2023-08-08T04:13:35;99289.44;;;26.09;53.31
60087;BME280;45960;53.630;55.972;2023-08-08T04:14:37;99283.53;;;26.12;52.80
60087;BME280;45960;53.630;55.972;2023-08-08T04:15:38;99282.84;;;26.17;52.87
60087;BME280;45960;53.630;55.972;2023-08-08T04:16:40;99283.03;;;26.22;52.63
60087;BME280;45960;53.630;55.972;2023-08-08T04:17:41;99278.75;;;26.26;53.13
60087;BME280;45960;53.630;55.972;2023-08-08T04:18:42;99284.38;;;26.31;52.48
60087;BME280;45960;53.630;55.972;2023-08-08T04:19:43;99290.03;;;26.36;52.68
60087;BME280;45960;53.630;55.972;2023-08-08T04:20:45;99292.94;;;26.41;52.72
60087;BME280;45960;53.630;55.972;2023-08-08T04:21:47;99293.06;;;26.46;52.55
60087;BME280;45960;53.630;55.972;2023-08-08T04:22:47;99288.59;;;26.52;52.70
60087;BME280;45960;53.630;55.972;2023-08-08T04:23:49;99290.66;;;26.56;51.98
60087;BME280;45960;53.630;55.972;2023-08-08T04:24:50;99286.38;;;26.61;51.70
60087;BME280;45960;53.630;55.972;2023-08-08T04:25:52;99282.16;;;26.65;51.45
60087;BME280;45960;53.630;55.972;2023-08-08T04:26:53;99283.34;;;26.69;50.95
60087;BME280;45960;53.630;55.972;2023-08-08T04:27:54;99287.94;;;26.75;50.86
60087;BME280;45960;53.630;55.972;2023-08-08T04:28:55;99274.81;;;26.77;50.84
60087;BME280;45960;53.630;55.972;2023-08-08T04:29:56;99288.22;;;26.85;50.96
60087;BME280;45960;53.630;55.972;2023-08-08T04:30:57;99273.00;;;26.89;50.52
60087;BME280;45960;53.630;55.972;2023-08-08T04:31:58;99279.66;;;26.93;50.66
60087;BME280;45960;53.630;55.972;2023-08-08T04:32:59;99282.56;;;26.98;50.65
60087;BME280;45960;53.630;55.972;2023-08-08T04:34:01;99281.63;;;27.05;50.05
60087;BME280;45960;53.630;55.972;2023-08-08T04:35:02;99284.50;;;27.10;49.84
60087;BME280;45960;53.630;55.972;2023-08-08T04:36:04;99280.22;;;27.14;49.73
60087;BME280;45960;53.630;55.972;2023-08-08T04:37:05;99277.06;;;27.17;49.18
60087;BME280;45960;53.630;55.972;2023-08-08T04:38:06;99283.75;;;27.21;49.17
60087;BME280;45960;53.630;55.972;2023-08-08T04:39:07;99270.50;;;27.18;48.87
60087;BME280;45960;53.630;55.972;2023-08-08T04:40:09;99276.72;;;27.25;48.59
60087;BME280;45960;53.630;55.972;2023-08-08T04:41:10;99279.03;;;27.28;48.81
60087;BME280;45960;53.630;55.972;2023-08-08T04:42:11;99268.63;;;27.30;48.64
60087;BME280;45960;53.630;55.972;2023-08-08T04:43:12;99275.09;;;27.36;48.24
60087;BME280;45960;53.630;55.972;2023-08-08T04:44:13;99272.25;;;27.42;48.64
60087;BME280;45960;53.630;55.972;2023-08-08T04:45:15;99272.91;;;27.56;48.33
60087;BME280;45960;53.630;55.972;2023-08-08T04:46:16;99260.50;;;27.65;48.01
60087;BME280;45960;53.630;55.972;2023-08-08T04:47:18;99269.50;;;27.84;47.74
60087;BME280;45960;53.630;55.972;2023-08-08T04:48:19;99262.94;;;27.97;47.35
60087;BME280;45960;53.630;55.972;2023-08-08T04:49:20;99275.00;;;28.08;46.97
60087;BME280;45960;53.630;55.972;2023-08-08T04:50:21;99271.06;;;28.16;46.96
60087;BME280;45960;53.630;55.972;2023-08-08T04:51:22;99267.56;;;28.20;46.89
60087;BME280;45960;53.630;55.972;2023-08-08T04:52:23;99269.88;;;28.23;46.59
60087;BME280;45960;53.630;55.972;2023-08-08T04:53:24;99260.28;;;28.26;46.32
60087;BME280;45960;53.630;55.972;2023-08-08T04:54:25;99265.56;;;28.27;46.59
60087;BME280;45960;53.630;55.972;2023-08-08T04:55:26;99267.34;;;28.33;46.15
60087;BME280;45960;53.630;55.972;2023-08-08T04:56:27;99262.19;;;28.37;46.40
60087;BME280;45960;53.630;55.972;2023-08-08T04:57:29;99265.31;;;28.41;46.34
60087;BME280;45960;53.630;55.972;2023-08-08T04:58:30;99269.72;;;28.42;46.56
60087;BME280;45960;53.630;55.972;2023-08-08T04:59:31;99263.03;;;28.38;46.27
60087;BME280;45960;53.630;55.972;2023-08-08T05:00:32;99259.22;;;28.39;45.92
60087;BME280;45960;53.630;55.972;2023-08-08T05:01:34;99264.69;;;28.39;46.12
60087;BME280;45960;53.630;55.972;2023-08-08T05:02:35;99263.88;;;28.38;46.50
60087;BME280;45960;53.630;55.972;2023-08-08T05:03:37;99260.88;;;28.40;45.89
60087;BME280;45960;53.630;55.972;2023-08-08T05:04:38;99266.78;;;28.43;45.97
60087;BME280;45960;53.630;55.972;2023-08-08T05:05:39;99261.63;;;28.47;45.84
60087;BME280;45960;53.630;55.972;2023-08-08T05:06:40;99261.13;;;28.50;46.01
60087;BME280;45960;53.630;55.972;2023-08-08T05:07:41;99269.50;;;28.55;46.02
60087;BME280;45960;53.630;55.972;2023-08-08T05:08:42;99266.47;;;28.56;45.99
60087;BME280;45960;53.630;55.972;2023-08-08T05:09:43;99266.84;;;28.60;45.92
60087;BME280;45960;53.630;55.972;2023-08-08T05:10:44;99268.38;;;28.68;45.55
60087;BME280;45960;53.630;55.972;2023-08-08T05:11:45;99268.25;;;28.74;45.44
60087;BME280;45960;53.630;55.972;2023-08-08T05:12:47;99263.44;;;28.82;45.21
60087;BME280;45960;53.630;55.972;2023-08-08T05:13:48;99267.13;;;28.87;44.90
60087;BME280;45960;53.630;55.972;2023-08-08T05:14:49;99267.47;;;28.91;44.64
60087;BME280;45960;53.630;55.972;2023-08-08T05:15:50;99263.16;;;28.95;44.74
60087;BME280;45960;53.630;55.972;2023-08-08T05:16:51;99266.50;;;28.97;44.56
60087;BME280;45960;53.630;55.972;2023-08-08T05:17:52;99267.66;;;29.01;44.34
60087;BME280;45960;53.630;55.972;2023-08-08T05:18:54;99257.91;;;29.05;44.62
60087;BME280;45960;53.630;55.972;2023-08-08T05:19:55;99266.56;;;29.14;44.28
60087;BME280;45960;53.630;55.972;2023-08-08T05:20:56;99266.41;;;29.20;43.84
60087;BME280;45960;53.630;55.972;2023-08-08T05:21:57;99262.09;;;29.25;44.20
60087;BME280;45960;53.630;55.972;2023-08-08T05:22:59;99254.69;;;29.25;44.11
60087;BME280;45960;53.630;55.972;2023-08-08T05:23:59;99246.09;;;29.21;43.62
60087;BME280;45960;53.630;55.972;2023-08-08T05:25:00;99256.22;;;29.33;43.82